Time;durP1;ratioP1;P1;durP2;ratioP2;P2;SDS_P1;SDS_P2;PMS_P1;PMS_P2;Temp;Humidity;BMP_temperature;BMP_pressure;BME280_temperature;BME280_humidity;BME280_pressure;Samples;Min_cycle;Max_cycle;Signal;HPM_P1;HPM_P2
2022/10/22 00:01:45;;;;;;;1.27;1.20;;;;;;;;;;5008330;28;20220;-72
2022/10/22 00:04:12;;;;;;;1.05;1.05;;;;;;;;;;5008231;28;20323;-72
2022/10/22 00:06:41;;;;;;;1.00;1.00;;;;;;;;;;5007980;28;20630;-72
2022/10/22 00:09:09;;;;;;;1.10;1.00;;;;;;;;;;4989209;28;20217;-72
2022/10/22 00:11:36;;;;;;;1.40;0.88;;;;;;;;;;5006783;28;20217;-72
2022/10/22 00:14:04;;;;;;;1.33;1.23;;;;;;;;;;5008253;28;20220;-72
2022/10/22 00:16:31;;;;;;;1.30;1.30;;;;;;;;;;5000147;28;20209;-71
2022/10/22 00:18:58;;;;;;;2.78;1.13;;;;;;;;;;4995613;28;20205;-72
2022/10/22 00:21:27;;;;;;;3.40;1.33;;;;;;;;;;4998131;28;20205;-71
2022/10/22 00:23:58;;;;;;;1.27;1.17;;;;;;;;;;4997556;28;20236;-72
2022/10/22 00:26:26;;;;;;;3.22;1.27;;;;;;;;;;4999132;28;20596;-71
2022/10/22 00:28:53;;;;;;;1.65;0.98;;;;;;;;;;5002754;28;20310;-72
2022/10/22 00:31:20;;;;;;;3.97;1.13;;;;;;;;;;4998171;28;20210;-73
2022/10/22 00:33:47;;;;;;;5.72;1.20;;;;;;;;;;4998709;28;20202;-72
2022/10/22 00:36:15;;;;;;;1.48;1.38;;;;;;;;;;4996481;28;20212;-72
2022/10/22 00:38:42;;;;;;;2.35;1.40;;;;;;;;;;4999441;28;20209;-72
2022/10/22 00:41:09;;;;;;;3.25;1.25;;;;;;;;;;4995168;28;20209;-72
2022/10/22 00:43:51;;;;;;;3.78;1.35;;;;;;;;;;5000579;28;20229;-72
2022/10/22 00:46:19;;;;;;;1.38;1.25;;;;;;;;;;5003908;28;20690;-71
2022/10/22 00:48:46;;;;;;;1.38;1.30;;;;;;;;;;5002186;28;20206;-71
2022/10/22 00:51:14;;;;;;;1.45;1.08;;;;;;;;;;4996606;28;20197;-71
2022/10/22 00:53:44;;;;;;;1.20;1.20;;;;;;;;;;4995937;28;20219;-71
2022/10/22 00:56:11;;;;;;;0.90;0.90;;;;;;;;;;4998897;28;20235;-71
2022/10/22 00:58:41;;;;;;;2.00;1.20;;;;;;;;;;5000465;28;20209;-71
2022/10/22 01:01:09;;;;;;;2.05;1.08;;;;;;;;;;4998259;28;20205;-71
2022/10/22 01:03:38;;;;;;;2.90;1.40;;;;;;;;;;4999919;28;20708;-71
2022/10/22 01:06:06;;;;;;;1.33;1.30;;;;;;;;;;4997633;28;20201;-71
2022/10/22 01:08:39;;;;;;;1.35;1.15;;;;;;;;;;5005801;28;20830;-71
2022/10/22 01:11:10;;;;;;;1.15;1.15;;;;;;;;;;4998977;28;20204;-71
2022/10/22 01:13:44;;;;;;;1.60;1.52;;;;;;;;;;5011892;28;20232;-71
2022/10/22 01:16:12;;;;;;;1.10;1.08;;;;;;;;;;5011625;28;20213;-71
2022/10/22 01:18:45;;;;;;;4.97;1.33;;;;;;;;;;5011696;28;20212;-71
2022/10/22 01:21:18;;;;;;;1.60;1.45;;;;;;;;;;5011251;28;20201;-71
2022/10/22 01:23:55;;;;;;;1.52;1.30;;;;;;;;;;5011398;28;20251;-71
2022/10/22 01:26:26;;;;;;;1.10;1.10;;;;;;;;;;5011707;28;20213;-71
2022/10/22 01:28:59;;;;;;;1.27;1.27;;;;;;;;;;5011741;28;20898;-71
2022/10/22 01:31:28;;;;;;;5.40;1.13;;;;;;;;;;5009487;28;20213;-71
2022/10/22 01:33:55;;;;;;;0.90;0.80;;;;;;;;;;5011360;28;20227;-72
2022/10/22 01:36:22;;;;;;;1.70;1.50;;;;;;;;;;5011261;28;20588;-71
2022/10/22 01:38:50;;;;;;;1.30;1.20;;;;;;;;;;5011019;28;20209;-72
2022/10/22 01:41:17;;;;;;;4.43;1.55;;;;;;;;;;5010130;28;20201;-72
2022/10/22 01:43:44;;;;;;;1.02;1.02;;;;;;;;;;5010752;28;20663;-72
2022/10/22 01:46:13;;;;;;;2.15;1.25;;;;;;;;;;5010664;28;20205;-71
2022/10/22 01:48:46;;;;;;;4.35;1.13;;;;;;;;;;5010894;28;20205;-72
2022/10/22 01:51:19;;;;;;;1.73;1.30;;;;;;;;;;5010403;28;20223;-72
2022/10/22 01:54:01;;;;;;;3.55;1.17;;;;;;;;;;5010542;28;20224;-71
2022/10/22 01:56:35;;;;;;;1.15;0.88;;;;;;;;;;5006607;28;20324;-72
2022/10/22 01:59:05;;;;;;;1.85;1.10;;;;;;;;;;5010444;28;20679;-71
2022/10/22 02:01:36;;;;;;;0.90;0.90;;;;;;;;;;4999963;28;20212;-71
2022/10/22 02:04:06;;;;;;;5.70;1.20;;;;;;;;;;5010758;28;20245;-72
2022/10/22 02:06:34;;;;;;;0.93;0.93;;;;;;;;;;5010466;28;20213;-71
2022/10/22 02:09:02;;;;;;;1.25;0.95;;;;;;;;;;5010211;28;20207;-71
2022/10/22 02:11:30;;;;;;;1.23;1.23;;;;;;;;;;5009783;28;20217;-71
2022/10/22 02:13:58;;;;;;;0.85;0.85;;;;;;;;;;5010446;28;20197;-72
2022/10/22 02:16:28;;;;;;;0.77;0.77;;;;;;;;;;5009981;28;20216;-72
2022/10/22 02:18:58;;;;;;;1.95;1.20;;;;;;;;;;5010850;28;20201;-71
2022/10/22 02:21:27;;;;;;;1.33;0.93;;;;;;;;;;5009691;28;20217;-72
2022/10/22 02:23:54;;;;;;;1.13;1.00;;;;;;;;;;5010916;28;20229;-72
2022/10/22 02:26:23;;;;;;;2.45;0.90;;;;;;;;;;5010013;28;20209;-72
2022/10/22 02:28:54;;;;;;;2.65;0.88;;;;;;;;;;5010639;28;20209;-72
2022/10/22 02:31:23;;;;;;;0.90;0.85;;;;;;;;;;5010191;28;20205;-71
2022/10/22 02:33:52;;;;;;;2.22;0.95;;;;;;;;;;5009646;28;20205;-71
2022/10/22 02:36:21;;;;;;;0.90;0.90;;;;;;;;;;5008576;28;20220;-71
2022/10/22 02:38:49;;;;;;;0.98;0.68;;;;;;;;;;5009057;28;20220;-71
2022/10/22 02:41:22;;;;;;;2.30;0.80;;;;;;;;;;5007729;28;20209;-72
2022/10/22 02:43:50;;;;;;;0.80;0.80;;;;;;;;;;5007946;28;20229;-72
2022/10/22 02:46:17;;;;;;;2.50;0.70;;;;;;;;;;5008177;28;20659;-71
2022/10/22 02:48:44;;;;;;;5.47;1.08;;;;;;;;;;5008620;28;20228;-71
2022/10/22 02:51:17;;;;;;;1.02;0.70;;;;;;;;;;5007957;28;20209;-71
2022/10/22 02:53:46;;;;;;;0.50;0.50;;;;;;;;;;5006565;28;20233;-72
2022/10/22 02:56:13;;;;;;;0.60;0.60;;;;;;;;;;5007599;28;20236;-72
2022/10/22 02:58:40;;;;;;;0.40;0.40;;;;;;;;;;5008004;28;20216;-72
2022/10/22 03:01:07;;;;;;;0.50;0.50;;;;;;;;;;5008002;28;20672;-72
2022/10/22 03:03:34;;;;;;;0.43;0.43;;;;;;;;;;5007850;28;20215;-71
2022/10/22 03:06:01;;;;;;;0.75;0.75;;;;;;;;;;5007834;28;20209;-71
2022/10/22 03:08:28;;;;;;;0.60;0.60;;;;;;;;;;5007557;28;20206;-71
2022/10/22 03:10:56;;;;;;;0.50;0.50;;;;;;;;;;5006734;28;20212;-71
2022/10/22 03:13:24;;;;;;;0.60;0.60;;;;;;;;;;5007674;28;20209;-71
2022/10/22 03:15:51;;;;;;;1.65;0.80;;;;;;;;;;5007298;28;20201;-73
2022/10/22 03:18:18;;;;;;;2.40;0.40;;;;;;;;;;5008525;28;20209;-71
2022/10/22 03:20:45;;;;;;;1.48;0.50;;;;;;;;;;5008311;28;20201;-71
2022/10/22 03:23:13;;;;;;;0.30;0.30;;;;;;;;;;5008230;28;20201;-71
2022/10/22 03:25:41;;;;;;;2.55;0.77;;;;;;;;;;5008530;28;20244;-73
2022/10/22 03:28:11;;;;;;;2.45;0.50;;;;;;;;;;5008699;28;20209;-72
2022/10/22 03:30:38;;;;;;;1.85;0.82;;;;;;;;;;5008046;28;20212;-72
2022/10/22 03:33:05;;;;;;;0.57;0.50;;;;;;;;;;5007964;28;20204;-72
2022/10/22 03:35:32;;;;;;;0.40;0.40;;;;;;;;;;5007283;28;20561;-71
2022/10/22 03:38:00;;;;;;;5.50;0.65;;;;;;;;;;5008456;28;20205;-71
2022/10/22 03:40:27;;;;;;;0.88;0.40;;;;;;;;;;5007517;28;20201;-71
2022/10/22 03:42:54;;;;;;;4.22;0.57;;;;;;;;;;5006969;28;20686;-72
2022/10/22 03:45:23;;;;;;;0.63;0.40;;;;;;;;;;5006496;28;20586;-71
2022/10/22 03:47:50;;;;;;;0.63;0.40;;;;;;;;;;5007016;28;20709;-71
2022/10/22 03:50:17;;;;;;;0.38;0.38;;;;;;;;;;5008087;28;20205;-71
2022/10/22 03:52:44;;;;;;;0.32;0.32;;;;;;;;;;5008130;28;20205;-71
2022/10/22 03:55:11;;;;;;;0.90;0.47;;;;;;;;;;5007939;28;20219;-72
2022/10/22 03:57:38;;;;;;;0.73;0.73;;;;;;;;;;5008754;28;20212;-71
2022/10/22 04:00:06;;;;;;;0.57;0.32;;;;;;;;;;5008038;28;20205;-71
2022/10/22 04:02:35;;;;;;;1.77;0.45;;;;;;;;;;5006899;28;20214;-72
2022/10/22 04:05:02;;;;;;;0.25;0.25;;;;;;;;;;5008018;28;20221;-71
2022/10/22 04:07:29;;;;;;;0.80;0.80;;;;;;;;;;5007772;28;20217;-71
2022/10/22 04:09:56;;;;;;;0.40;0.40;;;;;;;;;;5007986;28;20228;-72
2022/10/22 04:12:23;;;;;;;0.50;0.50;;;;;;;;;;5008304;28;20216;-72
2022/10/22 04:14:50;;;;;;;1.02;0.40;;;;;;;;;;5007914;28;20198;-72
2022/10/22 04:17:17;;;;;;;0.47;0.47;;;;;;;;;;5008317;28;20205;-71
2022/10/22 04:19:45;;;;;;;3.53;0.43;;;;;;;;;;5008197;28;20209;-72
2022/10/22 04:22:12;;;;;;;2.95;0.40;;;;;;;;;;5005807;28;20937;-71
2022/10/22 04:24:40;;;;;;;0.20;0.20;;;;;;;;;;5007055;28;20240;-71
2022/10/22 04:27:07;;;;;;;0.75;0.63;;;;;;;;;;5005707;28;20212;-71
2022/10/22 04:29:34;;;;;;;3.50;0.50;;;;;;;;;;5005429;28;20211;-71
2022/10/22 04:32:01;;;;;;;6.55;0.60;;;;;;;;;;5006123;28;20604;-71
2022/10/22 04:34:28;;;;;;;2.17;0.38;;;;;;;;;;5005069;28;20201;-71
2022/10/22 04:36:57;;;;;;;0.43;0.43;;;;;;;;;;5006445;28;20205;-71
2022/10/22 04:39:24;;;;;;;0.28;0.20;;;;;;;;;;5006045;28;20216;-72
2022/10/22 04:41:51;;;;;;;1.08;0.50;;;;;;;;;;5006766;28;20205;-71
2022/10/22 04:44:18;;;;;;;0.40;0.40;;;;;;;;;;5006495;28;20206;-71
2022/10/22 04:46:45;;;;;;;1.25;0.50;;;;;;;;;;5006037;28;20219;-71
2022/10/22 04:49:12;;;;;;;0.40;0.32;;;;;;;;;;5005906;28;20208;-71
2022/10/22 04:51:39;;;;;;;2.28;0.60;;;;;;;;;;5006104;28;20211;-71
2022/10/22 04:54:08;;;;;;;0.55;0.30;;;;;;;;;;5005631;28;20217;-71
2022/10/22 04:56:35;;;;;;;0.40;0.40;;;;;;;;;;5005414;28;20231;-71
2022/10/22 04:59:03;;;;;;;1.75;0.40;;;;;;;;;;5005086;28;20205;-71
2022/10/22 05:01:31;;;;;;;0.40;0.40;;;;;;;;;;5004345;28;20217;-71
2022/10/22 05:03:59;;;;;;;0.90;0.55;;;;;;;;;;5005783;28;20667;-71
2022/10/22 05:06:27;;;;;;;0.88;0.63;;;;;;;;;;5006275;28;20217;-71
2022/10/22 05:08:55;;;;;;;0.55;0.55;;;;;;;;;;5005848;28;20269;-71
2022/10/22 05:11:26;;;;;;;3.85;0.60;;;;;;;;;;5002063;28;20205;-71
2022/10/22 05:13:53;;;;;;;1.23;0.50;;;;;;;;;;5005297;28;20300;-71
2022/10/22 05:16:20;;;;;;;0.55;0.55;;;;;;;;;;5005302;28;20193;-71
2022/10/22 05:18:47;;;;;;;2.83;0.50;;;;;;;;;;5006296;28;20208;-71
2022/10/22 05:21:16;;;;;;;0.30;0.30;;;;;;;;;;5006500;28;20570;-71
2022/10/22 05:23:43;;;;;;;0.43;0.43;;;;;;;;;;5006651;28;20213;-71
2022/10/22 05:26:11;;;;;;;1.90;0.50;;;;;;;;;;5005807;28;20229;-72
2022/10/22 05:28:40;;;;;;;1.35;0.47;;;;;;;;;;5006941;28;20213;-72
2022/10/22 05:31:08;;;;;;;0.50;0.50;;;;;;;;;;5005581;28;20216;-72
2022/10/22 05:33:35;;;;;;;0.60;0.60;;;;;;;;;;5006280;28;20220;-72
2022/10/22 05:36:04;;;;;;;0.32;0.32;;;;;;;;;;5006285;28;20632;-71
2022/10/22 05:38:32;;;;;;;0.45;0.45;;;;;;;;;;5006536;28;20335;-72
2022/10/22 05:41:02;;;;;;;0.57;0.50;;;;;;;;;;5006378;28;20212;-72
2022/10/22 05:43:29;;;;;;;0.50;0.50;;;;;;;;;;5007059;28;20217;-72
2022/10/22 05:46:01;;;;;;;2.70;0.55;;;;;;;;;;4997621;28;20221;-73
2022/10/22 05:48:28;;;;;;;0.30;0.30;;;;;;;;;;5001487;28;20216;-74
2022/10/22 05:50:55;;;;;;;0.32;0.30;;;;;;;;;;4996373;28;20202;-73
2022/10/22 05:53:22;;;;;;;0.40;0.40;;;;;;;;;;5003711;28;20221;-73
2022/10/22 05:55:50;;;;;;;0.40;0.40;;;;;;;;;;5007498;28;20228;-74
2022/10/22 05:58:17;;;;;;;0.32;0.32;;;;;;;;;;5010235;28;20209;-73
2022/10/22 06:00:44;;;;;;;1.17;0.45;;;;;;;;;;5009094;28;20217;-73
2022/10/22 06:03:12;;;;;;;0.30;0.30;;;;;;;;;;5009801;28;20205;-74
2022/10/22 06:05:39;;;;;;;0.50;0.50;;;;;;;;;;5007411;28;20221;-71
2022/10/22 06:08:06;;;;;;;0.30;0.30;;;;;;;;;;5009067;28;20209;-72
2022/10/22 06:10:33;;;;;;;0.38;0.38;;;;;;;;;;5008155;28;20205;-74
2022/10/22 06:13:08;;;;;;;0.50;0.50;;;;;;;;;;5009211;28;20220;-71
2022/10/22 06:15:35;;;;;;;3.22;0.60;;;;;;;;;;5009460;28;20204;-70
2022/10/22 06:18:02;;;;;;;0.52;0.50;;;;;;;;;;5004484;28;20216;-72
2022/10/22 06:20:31;;;;;;;0.43;0.43;;;;;;;;;;5009424;28;20220;-73
2022/10/22 06:22:58;;;;;;;2.13;0.50;;;;;;;;;;5004103;28;20209;-72
2022/10/22 06:25:26;;;;;;;0.35;0.35;;;;;;;;;;5008999;28;20221;-72
2022/10/22 06:27:53;;;;;;;0.38;0.38;;;;;;;;;;5002032;28;20803;-73
2022/10/22 06:30:20;;;;;;;0.40;0.40;;;;;;;;;;5009418;28;20209;-71
2022/10/22 06:32:47;;;;;;;0.52;0.50;;;;;;;;;;5008818;28;20205;-72
2022/10/22 06:35:14;;;;;;;0.52;0.52;;;;;;;;;;5008946;28;20332;-67
2022/10/22 06:37:42;;;;;;;1.48;0.50;;;;;;;;;;5008865;28;20296;-70
2022/10/22 06:40:10;;;;;;;0.43;0.43;;;;;;;;;;5009145;28;20219;-72
2022/10/22 06:42:37;;;;;;;5.50;0.70;;;;;;;;;;5005621;28;20722;-72
2022/10/22 06:45:04;;;;;;;0.52;0.30;;;;;;;;;;5007356;28;20225;-72
2022/10/22 06:47:32;;;;;;;0.63;0.55;;;;;;;;;;5008610;28;20209;-72
2022/10/22 06:49:59;;;;;;;0.50;0.50;;;;;;;;;;5007780;28;20207;-70
2022/10/22 06:52:26;;;;;;;0.30;0.30;;;;;;;;;;5007531;28;20209;-69
2022/10/22 06:54:54;;;;;;;0.75;0.32;;;;;;;;;;5007966;28;20232;-69
2022/10/22 06:57:22;;;;;;;0.20;0.20;;;;;;;;;;5006836;28;20659;-71
2022/10/22 06:59:49;;;;;;;1.55;0.85;;;;;;;;;;5007893;28;20209;-71
2022/10/22 07:02:19;;;;;;;5.25;0.40;;;;;;;;;;5007607;28;20220;-70
2022/10/22 07:04:46;;;;;;;0.50;0.50;;;;;;;;;;5008154;28;20267;-69
2022/10/22 07:07:13;;;;;;;0.20;0.20;;;;;;;;;;5007119;28;20204;-69
2022/10/22 07:09:44;;;;;;;0.38;0.38;;;;;;;;;;5007385;28;20267;-71
2022/10/22 07:12:12;;;;;;;0.40;0.40;;;;;;;;;;5008473;28;20209;-71
2022/10/22 07:14:39;;;;;;;0.30;0.30;;;;;;;;;;5007046;28;20205;-72
2022/10/22 07:17:06;;;;;;;0.17;0.17;;;;;;;;;;5002012;28;20201;-71
2022/10/22 07:19:34;;;;;;;0.47;0.47;;;;;;;;;;5000394;28;20224;-71
2022/10/22 07:22:01;;;;;;;0.40;0.40;;;;;;;;;;5003733;28;20217;-70
2022/10/22 07:24:28;;;;;;;4.13;0.70;;;;;;;;;;5005841;28;20675;-71
2022/10/22 07:26:55;;;;;;;0.40;0.40;;;;;;;;;;5003855;28;20232;-71
2022/10/22 07:29:23;;;;;;;1.70;0.20;;;;;;;;;;5006657;28;20223;-70
2022/10/22 07:31:50;;;;;;;0.65;0.30;;;;;;;;;;5007182;28;20209;-70
2022/10/22 07:34:18;;;;;;;0.28;0.20;;;;;;;;;;5006566;28;20219;-69
2022/10/22 07:36:45;;;;;;;0.13;0.13;;;;;;;;;;5007083;28;20583;-70
2022/10/22 07:39:12;;;;;;;1.10;0.35;;;;;;;;;;5005224;28;20352;-69
2022/10/22 07:41:39;;;;;;;0.20;0.13;;;;;;;;;;5007007;28;20239;-70
2022/10/22 07:44:06;;;;;;;0.28;0.28;;;;;;;;;;5006801;28;20212;-70
2022/10/22 07:46:35;;;;;;;0.28;0.28;;;;;;;;;;5006274;28;20224;-72
2022/10/22 07:49:02;;;;;;;1.48;0.30;;;;;;;;;;5005190;28;20252;-70
2022/10/22 07:51:29;;;;;;;0.30;0.30;;;;;;;;;;5006159;28;20459;-70
2022/10/22 07:53:56;;;;;;;0.30;0.30;;;;;;;;;;5002038;28;20229;-71
2022/10/22 07:56:23;;;;;;;0.20;0.20;;;;;;;;;;5007731;28;20281;-71
2022/10/22 07:58:50;;;;;;;0.20;0.20;;;;;;;;;;5003152;28;20682;-70
2022/10/22 08:01:17;;;;;;;0.30;0.30;;;;;;;;;;5005839;28;20693;-70
2022/10/22 08:03:45;;;;;;;0.20;0.20;;;;;;;;;;4999108;28;20329;-71
2022/10/22 08:06:13;;;;;;;0.55;0.22;;;;;;;;;;5006825;28;20228;-70
2022/10/22 08:08:40;;;;;;;0.22;0.22;;;;;;;;;;5005262;28;20208;-71
2022/10/22 08:11:08;;;;;;;3.83;0.30;;;;;;;;;;5000762;28;20205;-71
2022/10/22 08:13:35;;;;;;;0.30;0.30;;;;;;;;;;5002865;28;20297;-71
2022/10/22 08:16:02;;;;;;;0.45;0.30;;;;;;;;;;5003061;28;20205;-71
2022/10/22 08:18:29;;;;;;;2.65;0.30;;;;;;;;;;5007021;28;20219;-71
2022/10/22 08:20:58;;;;;;;0.20;0.20;;;;;;;;;;5005281;28;20205;-71
2022/10/22 08:23:25;;;;;;;0.10;0.10;;;;;;;;;;5002956;28;20205;-71
2022/10/22 08:25:52;;;;;;;0.20;0.20;;;;;;;;;;5006382;28;20581;-71
2022/10/22 08:28:19;;;;;;;1.58;0.30;;;;;;;;;;5006416;28;20212;-71
2022/10/22 08:30:47;;;;;;;0.20;0.20;;;;;;;;;;5005121;28;20275;-71
2022/10/22 08:33:14;;;;;;;0.20;0.20;;;;;;;;;;5007692;28;20286;-71
2022/10/22 08:35:41;;;;;;;0.20;0.20;;;;;;;;;;5007409;28;20702;-71
2022/10/22 08:38:10;;;;;;;0.43;0.20;;;;;;;;;;5008376;28;20216;-71
2022/10/22 08:40:38;;;;;;;1.08;0.20;;;;;;;;;;5007714;28;20213;-71
2022/10/22 08:43:10;;;;;;;0.70;0.30;;;;;;;;;;5007879;28;20204;-71
2022/10/22 08:45:41;;;;;;;0.20;0.20;;;;;;;;;;5007699;28;20729;-71
2022/10/22 08:48:17;;;;;;;0.10;0.10;;;;;;;;;;5008146;28;20217;-71
2022/10/22 08:50:46;;;;;;;0.45;0.10;;;;;;;;;;5007426;28;20213;-71
2022/10/22 08:53:16;;;;;;;0.10;0.10;;;;;;;;;;5007741;28;20209;-70
2022/10/22 08:55:44;;;;;;;0.13;0.13;;;;;;;;;;5007466;28;20233;-71
2022/10/22 08:58:17;;;;;;;0.45;0.10;;;;;;;;;;5007734;28;20710;-71
2022/10/22 09:00:46;;;;;;;0.20;0.20;;;;;;;;;;5007305;28;20209;-70
2022/10/22 09:03:27;;;;;;;0.10;0.10;;;;;;;;;;5006868;28;20209;-70
2022/10/22 09:05:59;;;;;;;0.10;0.10;;;;;;;;;;4998988;28;20232;-70
2022/10/22 09:08:28;;;;;;;0.10;0.10;;;;;;;;;;5007619;28;20308;-70
2022/10/22 09:10:57;;;;;;;0.10;0.10;;;;;;;;;;5004597;28;20557;-65
2022/10/22 09:13:24;;;;;;;0.10;0.10;;;;;;;;;;5007253;28;20599;-67
2022/10/22 09:15:53;;;;;;;0.25;0.17;;;;;;;;;;5007137;28;20212;-70
2022/10/22 09:18:26;;;;;;;0.10;0.10;;;;;;;;;;5007729;28;20204;-70
2022/10/22 09:20:55;;;;;;;1.40;0.20;;;;;;;;;;5007628;28;20228;-70
2022/10/22 09:23:29;;;;;;;0.10;0.10;;;;;;;;;;5007778;28;20209;-70
2022/10/22 09:25:57;;;;;;;0.43;0.10;;;;;;;;;;5007381;28;20221;-70
2022/10/22 09:28:24;;;;;;;0.20;0.20;;;;;;;;;;5006874;28;20553;-70
2022/10/22 09:30:52;;;;;;;0.17;0.17;;;;;;;;;;5008692;28;20208;-71
2022/10/22 09:33:20;;;;;;;0.10;0.10;;;;;;;;;;5011312;28;20212;-71
2022/10/22 09:35:49;;;;;;;0.30;0.20;;;;;;;;;;5011041;28;20201;-71
2022/10/22 09:38:17;;;;;;;0.10;0.10;;;;;;;;;;5011506;28;20271;-71
2022/10/22 09:40:46;;;;;;;0.08;0.08;;;;;;;;;;5010731;28;20239;-71
2022/10/22 09:43:15;;;;;;;1.30;0.10;;;;;;;;;;5011092;28;20217;-71
2022/10/22 09:45:42;;;;;;;0.55;0.17;;;;;;;;;;5010833;28;20205;-70
2022/10/22 09:48:18;;;;;;;0.10;0.10;;;;;;;;;;5011347;28;20214;-70
2022/10/22 09:50:46;;;;;;;2.60;0.10;;;;;;;;;;5010787;28;20209;-70
2022/10/22 09:53:14;;;;;;;4.90;0.40;;;;;;;;;;5010595;28;20678;-70
2022/10/22 09:55:42;;;;;;;0.10;0.10;;;;;;;;;;4999885;28;20260;-70
2022/10/22 09:58:11;;;;;;;0.08;0.08;;;;;;;;;;4998991;28;20225;-71
2022/10/22 10:00:40;;;;;;;0.20;0.20;;;;;;;;;;4991180;28;20217;-70
2022/10/22 10:03:07;;;;;;;0.10;0.10;;;;;;;;;;5007949;28;20231;-70
2022/10/22 10:05:36;;;;;;;1.75;0.20;;;;;;;;;;5010689;28;20213;-71
2022/10/22 10:08:09;;;;;;;0.30;0.30;;;;;;;;;;5009261;28;20233;-71
2022/10/22 10:10:40;;;;;;;0.40;0.40;;;;;;;;;;5010397;28;20205;-68
2022/10/22 10:13:18;;;;;;;2.28;0.30;;;;;;;;;;5008206;28;20694;-71
2022/10/22 10:15:51;;;;;;;0.13;0.13;;;;;;;;;;5009964;28;20201;-66
2022/10/22 10:18:23;;;;;;;0.10;0.10;;;;;;;;;;5009867;28;20209;-70
2022/10/22 10:20:54;;;;;;;0.10;0.10;;;;;;;;;;5009749;28;20667;-70
2022/10/22 10:23:26;;;;;;;0.30;0.22;;;;;;;;;;5008947;28;20570;-65
2022/10/22 10:25:57;;;;;;;0.10;0.10;;;;;;;;;;5005947;28;20221;-70
2022/10/22 10:28:29;;;;;;;3.60;0.20;;;;;;;;;;5008519;28;20231;-70
2022/10/22 10:31:01;;;;;;;0.15;0.15;;;;;;;;;;4990498;28;20216;-70
2022/10/22 10:33:33;;;;;;;0.57;0.30;;;;;;;;;;4995909;28;20209;-69
2022/10/22 10:36:04;;;;;;;0.10;0.10;;;;;;;;;;5008818;28;20227;-71
2022/10/22 10:38:46;;;;;;;0.10;0.10;;;;;;;;;;5009397;28;20437;-71
2022/10/22 10:41:18;;;;;;;0.13;0.13;;;;;;;;;;5009150;28;20235;-71
2022/10/22 10:43:51;;;;;;;1.65;0.40;;;;;;;;;;4995919;28;20224;-71
2022/10/22 10:46:25;;;;;;;0.32;0.20;;;;;;;;;;5009220;28;20244;-71
2022/10/22 10:48:55;;;;;;;0.63;0.20;;;;;;;;;;5007390;28;20206;-71
2022/10/22 10:51:28;;;;;;;0.73;0.25;;;;;;;;;;4992197;28;20221;-71
2022/10/22 10:54:02;;;;;;;0.80;0.20;;;;;;;;;;5002655;28;20220;-74
2022/10/22 10:56:34;;;;;;;0.10;0.10;;;;;;;;;;4998333;28;20249;-70
2022/10/22 10:59:03;;;;;;;0.30;0.20;;;;;;;;;;4998903;28;20329;-70
2022/10/22 11:01:36;;;;;;;0.30;0.30;;;;;;;;;;4999505;28;20216;-70
2022/10/22 11:04:14;;;;;;;0.43;0.38;;;;;;;;;;4998982;28;20212;-71
2022/10/22 11:06:42;;;;;;;0.22;0.20;;;;;;;;;;4998829;28;20233;-70
2022/10/22 11:09:15;;;;;;;0.22;0.22;;;;;;;;;;5000583;28;20213;-70
2022/10/22 11:11:44;;;;;;;0.22;0.22;;;;;;;;;;4998645;28;20293;-66
2022/10/22 11:14:14;;;;;;;1.08;0.30;;;;;;;;;;5000546;28;20205;-66
2022/10/22 11:16:45;;;;;;;1.95;0.17;;;;;;;;;;5008679;28;20248;-67
2022/10/22 11:19:13;;;;;;;0.20;0.20;;;;;;;;;;5006351;28;20204;-67
2022/10/22 11:21:42;;;;;;;0.20;0.20;;;;;;;;;;5006812;28;20213;-68
2022/10/22 11:24:13;;;;;;;1.67;0.35;;;;;;;;;;5008526;28;20208;-67
2022/10/22 11:26:45;;;;;;;0.90;0.28;;;;;;;;;;5007217;28;20229;-68
2022/10/22 11:29:16;;;;;;;0.28;0.20;;;;;;;;;;5004605;28;20209;-67
2022/10/22 11:31:44;;;;;;;1.10;0.30;;;;;;;;;;5007945;28;20247;-67
2022/10/22 11:34:16;;;;;;;0.47;0.15;;;;;;;;;;5008437;28;20212;-67
2022/10/22 11:36:44;;;;;;;1.65;0.20;;;;;;;;;;5007768;28;20212;-68
2022/10/22 11:39:26;;;;;;;0.82;0.50;;;;;;;;;;5007983;28;20213;-67
2022/10/22 11:41:53;;;;;;;0.38;0.10;;;;;;;;;;5007960;28;20205;-67
2022/10/22 11:44:22;;;;;;;0.20;0.20;;;;;;;;;;5008345;28;20582;-67
2022/10/22 11:46:57;;;;;;;0.20;0.20;;;;;;;;;;5007900;28;20232;-67
2022/10/22 11:49:25;;;;;;;2.38;0.30;;;;;;;;;;5007983;28;20228;-67
2022/10/22 11:51:53;;;;;;;0.13;0.13;;;;;;;;;;5007698;28;20209;-67
2022/10/22 11:54:42;;;;;;;1.35;0.30;;;;;;;;;;5007987;28;20237;-67
2022/10/22 11:57:23;;;;;;;2.08;0.38;;;;;;;;;;5004106;28;20229;-67
2022/10/22 11:59:53;;;;;;;1.55;0.40;;;;;;;;;;5008088;28;20581;-67
2022/10/22 12:02:41;;;;;;;2.05;0.30;;;;;;;;;;5005507;28;20209;-69
2022/10/22 12:05:33;;;;;;;0.20;0.20;;;;;;;;;;4999851;28;20210;-69
2022/10/22 12:08:03;;;;;;;0.75;0.10;;;;;;;;;;5007128;28;20260;-70
2022/10/22 12:10:34;;;;;;;0.65;0.30;;;;;;;;;;5006095;28;20855;-69
2022/10/22 12:13:03;;;;;;;0.55;0.32;;;;;;;;;;4994436;28;20209;-69
2022/10/22 12:15:30;;;;;;;1.70;0.50;;;;;;;;;;5006683;28;20217;-69
2022/10/22 12:18:01;;;;;;;0.57;0.38;;;;;;;;;;5007767;28;20248;-69
2022/10/22 12:20:28;;;;;;;0.90;0.20;;;;;;;;;;5008050;28;20213;-69
2022/10/22 12:22:56;;;;;;;1.65;0.32;;;;;;;;;;5007562;28;20675;-69
2022/10/22 12:25:25;;;;;;;0.30;0.17;;;;;;;;;;5008211;28;20252;-69
2022/10/22 12:27:53;;;;;;;0.20;0.20;;;;;;;;;;5004251;28;20250;-69
2022/10/22 12:30:22;;;;;;;2.40;0.38;;;;;;;;;;5006859;28;20644;-70
2022/10/22 12:32:51;;;;;;;1.40;0.28;;;;;;;;;;5007917;28;20209;-69
2022/10/22 12:35:21;;;;;;;1.52;0.20;;;;;;;;;;5004868;28;20212;-69
2022/10/22 12:37:50;;;;;;;0.63;0.25;;;;;;;;;;5007083;28;20201;-65
2022/10/22 12:40:19;;;;;;;0.65;0.30;;;;;;;;;;5007435;28;20243;-71
2022/10/22 12:42:49;;;;;;;0.38;0.30;;;;;;;;;;4993354;28;20694;-69
2022/10/22 12:45:20;;;;;;;1.25;0.30;;;;;;;;;;5007387;28;20201;-68
2022/10/22 12:47:47;;;;;;;0.30;0.30;;;;;;;;;;5004939;28;20225;-66
2022/10/22 12:50:19;;;;;;;0.52;0.20;;;;;;;;;;5006325;28;20205;-68
2022/10/22 12:52:47;;;;;;;0.70;0.30;;;;;;;;;;5006587;28;20205;-69
2022/10/22 12:55:16;;;;;;;0.22;0.22;;;;;;;;;;5006962;28;20749;-69
2022/10/22 12:57:43;;;;;;;1.38;0.20;;;;;;;;;;5007412;28;20212;-68
2022/10/22 13:00:21;;;;;;;1.45;0.45;;;;;;;;;;5007065;28;20209;-68
2022/10/22 13:02:48;;;;;;;3.25;0.35;;;;;;;;;;5007613;28;20240;-68
2022/10/22 13:05:22;;;;;;;0.75;0.30;;;;;;;;;;5006395;28;20663;-69
2022/10/22 13:07:52;;;;;;;1.85;0.50;;;;;;;;;;5007104;28;20263;-69
2022/10/22 13:10:21;;;;;;;1.10;0.40;;;;;;;;;;5006010;28;20201;-68
2022/10/22 13:12:52;;;;;;;0.93;0.15;;;;;;;;;;5007284;28;20209;-68
2022/10/22 13:15:20;;;;;;;0.73;0.25;;;;;;;;;;5007318;28;20206;-69
2022/10/22 13:17:47;;;;;;;0.45;0.22;;;;;;;;;;5006882;28;20193;-68
2022/10/22 13:20:19;;;;;;;1.38;0.38;;;;;;;;;;5007054;28;20266;-69
2022/10/22 13:22:56;;;;;;;2.08;0.38;;;;;;;;;;5007410;28;20201;-69
2022/10/22 13:25:25;;;;;;;1.17;0.13;;;;;;;;;;5007940;28;20208;-69
2022/10/22 13:27:53;;;;;;;2.45;0.30;;;;;;;;;;4990260;28;20233;-69
2022/10/22 13:30:22;;;;;;;0.52;0.30;;;;;;;;;;5006273;28;20667;-71
2022/10/22 13:32:50;;;;;;;3.20;0.35;;;;;;;;;;5005605;28;20212;-69
2022/10/22 13:35:18;;;;;;;0.90;0.38;;;;;;;;;;4994255;28;20446;-69
2022/10/22 13:37:45;;;;;;;1.25;0.13;;;;;;;;;;4995959;28;20284;-69
2022/10/22 13:40:15;;;;;;;1.33;0.17;;;;;;;;;;5004666;28;20209;-69
2022/10/22 13:42:42;;;;;;;1.73;0.30;;;;;;;;;;5004558;28;20197;-69
2022/10/22 13:45:09;;;;;;;0.20;0.20;;;;;;;;;;5006583;28;20216;-69
2022/10/22 13:47:36;;;;;;;1.10;0.20;;;;;;;;;;5006812;28;20236;-69
2022/10/22 13:50:05;;;;;;;0.28;0.20;;;;;;;;;;5006778;28;20219;-69
2022/10/22 13:52:35;;;;;;;0.55;0.20;;;;;;;;;;5006010;28;20223;-69
2022/10/22 13:55:02;;;;;;;0.68;0.43;;;;;;;;;;5006782;28;20225;-68
2022/10/22 13:57:30;;;;;;;0.40;0.40;;;;;;;;;;5006296;28;20201;-68
2022/10/22 13:59:57;;;;;;;1.30;0.30;;;;;;;;;;5006696;28;20220;-69
2022/10/22 14:02:24;;;;;;;3.00;0.20;;;;;;;;;;5006294;28;20209;-69
2022/10/22 14:04:52;;;;;;;0.73;0.43;;;;;;;;;;5002852;28;20229;-69
2022/10/22 14:07:19;;;;;;;0.68;0.40;;;;;;;;;;4998959;28;20288;-69
2022/10/22 14:09:46;;;;;;;1.05;0.50;;;;;;;;;;5006666;28;20212;-67
2022/10/22 14:12:14;;;;;;;0.75;0.40;;;;;;;;;;5006194;28;20209;-67
2022/10/22 14:14:43;;;;;;;1.65;0.30;;;;;;;;;;5004178;28;20714;-67
2022/10/22 14:17:15;;;;;;;0.40;0.40;;;;;;;;;;5007940;28;20603;-67
2022/10/22 14:19:42;;;;;;;0.55;0.40;;;;;;;;;;5009735;28;20213;-68
2022/10/22 14:22:10;;;;;;;0.88;0.50;;;;;;;;;;5009717;28;20228;-67
2022/10/22 14:24:37;;;;;;;3.92;0.60;;;;;;;;;;5009756;28;20657;-67
2022/10/22 14:27:05;;;;;;;0.60;0.60;;;;;;;;;;5008374;28;20213;-67
2022/10/22 14:29:32;;;;;;;0.88;0.43;;;;;;;;;;4989779;28;20210;-67
2022/10/22 14:32:00;;;;;;;0.30;0.28;;;;;;;;;;4992200;28;20217;-67
2022/10/22 14:34:27;;;;;;;1.05;0.30;;;;;;;;;;5006903;28;20216;-67
2022/10/22 14:36:54;;;;;;;3.20;0.30;;;;;;;;;;5009153;28;20698;-67
2022/10/22 14:39:21;;;;;;;0.90;0.40;;;;;;;;;;5009136;28;20193;-68
2022/10/22 14:41:48;;;;;;;1.23;0.70;;;;;;;;;;5003176;28;20214;-68
2022/10/22 14:44:15;;;;;;;0.73;0.60;;;;;;;;;;5009313;28;20205;-68
2022/10/22 14:46:43;;;;;;;0.95;0.50;;;;;;;;;;4996673;28;20210;-67
2022/10/22 14:49:11;;;;;;;1.85;0.52;;;;;;;;;;4990149;28;20229;-68
2022/10/22 14:51:38;;;;;;;0.50;0.40;;;;;;;;;;4998367;28;20223;-67
2022/10/22 14:54:05;;;;;;;0.30;0.30;;;;;;;;;;5008836;28;20221;-67